Terminal Aerodrome Forecast
Issued by NWS Wilmington, OH

Home | Current Version | Previous Version | Text Only | Print | Product List | Glossary On
Versions: 1 2 3 4 5 6 7 8 9 10 11 12 13 14 15 16 17 18 19 20
000
FTUS41 KILN 241736
TAFILN
TAF
KILN 241736Z 2418/2518 05010KT P6SM SCT022
      TEMPO 2418/2420 BKN022
     FM250000 07004KT P6SM SCT250
     FM250800 00000KT 2SM BR FEW030 SCT250
     FM251400 07005KT P6SM FEW035 SCT050=

USA.gov is the U.S. government's official web portal to all federal, state and local government web resources and services.